Aérodrome :
LOGIN :

S'inscrire | Disclaimer

   EN    FR    IT 

 










Légende :    VFR   VFR Marginal   IFR   IFR Intensif   IFR Très Intensif
Visi : 
Plafond : 
>= 8 km
>= 3000ft
5 à 8 km
1000 à 3000 ft
1500m à 5 km
500 à 1000 ft
800 à 1500m
200 à 500 ft
< 800m
< 200 ft
Symboles :   Orages  Brouillard  Fortes neiges  Fortes précipitations  Vent > 20 kt
SIGMETs :   Divers  Orages  Givrage  Turbulence  Onde Orograph.  Cendres Volcan.






- Altitude de l'aérodrome : 335 ft
- Code IATA : BEG


LYBE - Belgrade Nikola Tesla

DERNIER METAR :
  • 101030Z 30010KT 2000 -RA BR FEW004 BKN008 06/06 Q1014 NOSIG

METARs EXPIRÉS :
  • 101000Z 31009KT 2000 -RA BR BKN005 06/06 Q1013 NOSIG
  • 100930Z 32009KT 2000 -RA BR BKN005 06/06 Q1013 NOSIG
  • 100900Z 33008KT 3500 BR OVC005 06/06 Q1013 NOSIG
  • 100830Z 32006KT 2500 BR OVC005 06/06 Q1013 NOSIG
  • 100800Z 32008KT 2000 BR BKN003 06/06 Q1012 NOSIG

TAF AMD TAF LYBE
Valide du 10 à 07h jusqu'au 11 à 06h UTC


100655Z 1007/1106 32008KT 6000 BKN010 BKN033 TX06/1007Z TN01/1106Z
TEMPO 1007/1018 3000 RA BKN004 BKN027



MET'MAP, la Météo Aéronautique d'un coup d'oeil ! - Copyright ORBIFLY Décembre 2007 - Disclaimer

ORBIFLY MET'MAP TEAM :

Programmation & Développement : Alexandra Zaïnal
Sur une idée originale de : Baudouin d'Aumeries
Assistance à la programmation : Marc-Olivier Méhu
Soutien technique & logistique : Manuel Goepfert

Contact : metmap@orbifly.com




SOURCES & CREDITS :

   NOAA